EDAC/ADC METAR and TAF weather

Enter ICAO airport designator
Station Type Date Time Source
EDAC METAR 2018/10/22 16:20 UTC NOAA

EDAC 221620Z 35004KT 9999 FEW010 OVC031 08/07 Q1030


Station Type Date Time Source
EDAC Decoded METAR 2018/10/22 16:20 UTC NOAA

Altenburg Nobitz, Germany (EDAC) 50-58N 012-30E
Oct 22, 2018 - 12:20 PM EDT / 2018.10.22 1620 UTC
Wind: from the N (350 degrees) at 5 MPH (4 KT):0
Visibility: greater than 7 mile(s):0
Sky conditions: overcast
Temperature: 46 F (8 C)
Dew Point: 44 F (7 C)
Relative Humidity: 93%
Pressure (altimeter): 30.42 in. Hg (1030 hPa)
ob: EDAC 221620Z 35004KT 9999 FEW010 OVC031 08/07 Q1030
cycle: 16

Station Type Date Time Source
EDAC TAF UTC NOAA

Error!


Example: see airport list